Arethusa — 9HJR9 — position and weather

sailwx.info

Track history (hours):
 
Tides and Currents Weather Stations Pressure Air Temp Water Temp Dewpoint Dewpoint Depression Visibility Wind Speed Wind Dir Waves Ship Positions

Arethusa

Last reported at 2017-Aug-18 05:28 UTC. Time now 2017-Aug-19 05:25 UTC.
Position N 43°41' E 007°17'.

Length 60 m; draft 3 m.

Type: Passenger vessel. MMSI: 249069000.

Date/timePositionNaut miles runAvg speedWind from/ knotsBaromVisibWave heightAir tempDewpointWater temp
2017-Aug-18 05:28N 43°41' E 007°17'34 6.1
2017-Aug-17 23:58N 43°49' E 008°03'610.8
2017-Aug-17 23:25N 43°52' E 008°10'411.0
2017-Aug-17 23:00N 43°54' E 008°16'611.1
2017-Aug-17 22:30N 43°56' E 008°23'611.1
2017-Aug-17 22:00N 43°59' E 008°29'510.9
2017-Aug-17 21:30N 44°01' E 008°36'610.9
2017-Aug-17 20:58N 44°04' E 008°43'511.0
2017-Aug-17 20:30N 44°06' E 008°50'511.0
2017-Aug-17 20:00N 44°09' E 008°56'510.8
2017-Aug-17 19:30N 44°11' E 009°03'510.6
2017-Aug-17 19:00N 44°14' E 009°10'510.0
2017-Aug-17 18:30N 44°16' E 009°16'2 0.1
2017-Aug-17 04:54N 44°16' E 009°18'4 9.9
2017-Aug-17 04:30N 44°14' E 009°23'510.1
2017-Aug-17 04:00N 44°10' E 009°28'510.2
2017-Aug-17 03:31N 44°07' E 009°33'5 9.9
2017-Aug-17 03:01N 44°04' E 009°38'5 9.7
2017-Aug-17 02:30N 44°01' E 009°44'5 9.7
2017-Aug-17 02:01N 44°01' E 009°50'3 3.8
2017-Aug-17 01:19N 44°03' E 009°51'0 0.0
2017-Aug-17 00:58N 44°03' E 009°51'0 0.0
2017-Aug-17 00:28N 44°03' E 009°51'0 0.0
2017-Aug-16 23:58N 44°03' E 009°51'0 0.0
2017-Aug-16 23:28N 44°03' E 009°51'0 0.0
2017-Aug-16 22:58N 44°03' E 009°51'0 0.0
2017-Aug-16 22:28N 44°03' E 009°51'0 0.0
2017-Aug-16 21:58N 44°03' E 009°51'0 0.0
2017-Aug-16 21:28N 44°03' E 009°51'0 0.0
2017-Aug-16 20:58N 44°03' E 009°51'0 0.0
2017-Aug-16 20:28N 44°03' E 009°51'0 0.0
2017-Aug-16 19:58N 44°03' E 009°51'0 0.0
2017-Aug-16 19:22N 44°03' E 009°51'0 0.0
2017-Aug-16 18:58N 44°03' E 009°51'0 0.0
2017-Aug-16 18:28N 44°03' E 009°51'0 0.0
2017-Aug-16 17:58N 44°03' E 009°51'0 0.0
2017-Aug-16 17:28N 44°03' E 009°51'0 0.0
2017-Aug-16 16:58N 44°03' E 009°51'0 0.0
2017-Aug-16 16:28N 44°03' E 009°51'0 0.0
2017-Aug-16 15:58N 44°03' E 009°51'0 0.1
2017-Aug-16 15:28N 44°03' E 009°51'0 0.1
2017-Aug-16 14:58N 44°03' E 009°51'0 0.1
2017-Aug-16 14:28N 44°03' E 009°51'0 0.0
2017-Aug-16 13:58N 44°03' E 009°51'0 0.0
2017-Aug-16 13:28N 44°03' E 009°51'0 0.0
2017-Aug-16 12:55N 44°03' E 009°51'0 0.0
2017-Aug-16 12:28N 44°03' E 009°51'0 0.1
2017-Aug-16 11:58N 44°03' E 009°51'0 0.0
2017-Aug-16 11:22N 44°03' E 009°51'0 0.1
2017-Aug-16 10:58N 44°03' E 009°51'0 0.0
2017-Aug-16 10:28N 44°03' E 009°51'0 0.0
2017-Aug-16 09:58N 44°03' E 009°51'0 0.0
2017-Aug-16 09:28N 44°03' E 009°51'0 0.0
2017-Aug-16 08:58N 44°03' E 009°51'0 0.0
2017-Aug-16 08:28N 44°03' E 009°51'0 0.1
2017-Aug-16 07:58N 44°03' E 009°51'0 0.0
2017-Aug-16 07:28N 44°03' E 009°51'0 0.0
2017-Aug-16 06:58N 44°03' E 009°51'0 0.0
2017-Aug-16 06:28N 44°03' E 009°51'0 0.0
2017-Aug-16 05:58N 44°03' E 009°51'0 0.0
2017-Aug-16 05:28N 44°03' E 009°51'0 0.0
2017-Aug-16 04:58N 44°03' E 009°51'0 0.0
2017-Aug-16 04:28N 44°03' E 009°51'0 0.0
2017-Aug-16 03:58N 44°03' E 009°51'0 0.0
2017-Aug-16 03:28N 44°03' E 009°51'0 0.0
2017-Aug-16 02:58N 44°03' E 009°51'0 0.0
2017-Aug-16 02:28N 44°03' E 009°51'0 0.0
2017-Aug-16 01:58N 44°03' E 009°51'0 0.0
2017-Aug-16 01:28N 44°03' E 009°51'0 0.0
2017-Aug-16 00:58N 44°03' E 009°51'0 0.0
2017-Aug-16 00:28N 44°03' E 009°51'0 0.0
2017-Aug-15 23:58N 44°03' E 009°51'0 0.0
2017-Aug-15 23:28N 44°03' E 009°51'0 0.0
2017-Aug-15 22:58N 44°03' E 009°51'0 0.0
2017-Aug-15 22:25N 44°03' E 009°51'0 0.0
2017-Aug-15 21:55N 44°03' E 009°51'0 0.0
2017-Aug-15 21:28N 44°03' E 009°51'0 0.0
2017-Aug-15 20:55N 44°03' E 009°51'0 0.0
2017-Aug-15 20:28N 44°03' E 009°51'0 0.0
2017-Aug-15 19:58N 44°03' E 009°51'0 0.0
2017-Aug-15 19:28N 44°03' E 009°51'0 0.0
2017-Aug-15 18:58N 44°03' E 009°51'0 0.0
2017-Aug-15 18:28N 44°03' E 009°51'0 0.0
2017-Aug-15 17:55N 44°03' E 009°51'0 0.0
2017-Aug-15 17:28N 44°03' E 009°51'0 0.0
2017-Aug-15 16:58N 44°03' E 009°51'0 0.0
2017-Aug-15 16:28N 44°03' E 009°51'0 0.0
2017-Aug-15 15:58N 44°03' E 009°51'0 0.1
2017-Aug-15 15:28N 44°03' E 009°51'0 0.0
2017-Aug-15 14:58N 44°03' E 009°51'0 0.0
2017-Aug-15 14:19N 44°03' E 009°51'0 0.0
2017-Aug-15 13:58N 44°03' E 009°51'0 0.0
2017-Aug-15 13:25N 44°03' E 009°51'0 0.0
2017-Aug-15 12:58N 44°03' E 009°51'0 0.6
2017-Aug-15 12:29N 44°03' E 009°51'3 5.8
2017-Aug-15 12:00N 44°02' E 009°54'510.1
2017-Aug-15 11:30N 43°60' E 010°01'3 1.0
2017-Aug-15 08:44N 44°02' E 010°02'0 0.0
2017-Aug-15 08:17N 44°02' E 010°02'0 0.0
2017-Aug-15 07:44N 44°02' E 010°02'0 0.0
2017-Aug-15 07:23N 44°02' E 010°02'0 0.0
2017-Aug-15 06:56N 44°02' E 010°02'0 0.0
2017-Aug-15 06:26N 44°02' E 010°02'0 0.0
2017-Aug-15 05:59N 44°02' E 010°02'1 2.3
2017-Aug-15 05:30N 44°01' E 010°03'510.0
2017-Aug-15 05:00N 43°56' E 010°01'510.4
2017-Aug-15 04:30N 43°52' E 009°58'611.0
2017-Aug-15 04:00N 43°46' E 009°55'510.9
2017-Aug-15 03:30N 43°41' E 009°53'510.9
2017-Aug-15 03:00N 43°36' E 009°50'510.8
2017-Aug-15 02:30N 43°31' E 009°48'510.6
2017-Aug-15 02:00N 43°26' E 009°45'510.2
2017-Aug-15 01:30N 43°21' E 009°44'510.0
2017-Aug-15 01:00N 43°16' E 009°43'510.3
2017-Aug-15 00:30N 43°11' E 009°41'510.3
2017-Aug-15 00:00N 43°06' E 009°40'510.9
2017-Aug-14 23:30N 43°01' E 009°39'510.8
2017-Aug-14 23:00N 42°55' E 009°41'10 8.7
2017-Aug-14 21:49N 42°45' E 009°37'310.1
2017-Aug-14 21:28N 42°43' E 009°33'29 1.1
2017-Aug-13 18:57N 42°51' E 010°11'510.4
2017-Aug-13 18:30N 42°51' E 010°17'3 0.2
2017-Aug-13 05:36N 42°49' E 010°20'0 3.5
2017-Aug-13 05:28N 42°48' E 010°20'0 0.2
2017-Aug-13 04:58N 42°48' E 010°20'0 0.0
2017-Aug-13 04:25N 42°48' E 010°20'0 0.0
2017-Aug-13 03:55N 42°48' E 010°20'0 0.0
2017-Aug-13 03:16N 42°48' E 010°20'0 0.0
2017-Aug-13 02:52N 42°48' E 010°20'0 0.0
2017-Aug-13 02:28N 42°48' E 010°20'0 0.0
2017-Aug-13 01:52N 42°48' E 010°20'0 0.0
2017-Aug-13 01:28N 42°48' E 010°20'0 0.0
2017-Aug-13 00:40N 42°48' E 010°20'0 0.0
2017-Aug-13 00:22N 42°48' E 010°20'0 0.1
2017-Aug-12 23:52N 42°48' E 010°20'8 9.2
2017-Aug-12 23:02N 42°56' E 010°19'311.0
2017-Aug-12 22:48N 42°59' E 010°19'311.0
2017-Aug-12 22:30N 43°02' E 010°18'611.2
2017-Aug-12 22:00N 43°07' E 010°17'611.2
2017-Aug-12 21:30N 43°13' E 010°16'611.2
2017-Aug-12 21:00N 43°19' E 010°15'611.0
2017-Aug-12 20:30N 43°24' E 010°14'510.8
2017-Aug-12 20:00N 43°29' E 010°13'4 8.8
2017-Aug-12 19:31N 43°32' E 010°17'1 1.5
2017-Aug-12 19:00N 43°33' E 010°18'0 0.0
2017-Aug-12 18:29N 43°33' E 010°18'0 0.0
2017-Aug-12 17:59N 43°33' E 010°18'0 0.0
2017-Aug-12 17:29N 43°33' E 010°18'0 0.0
2017-Aug-12 16:56N 43°33' E 010°18'0 0.0
2017-Aug-12 16:17N 43°33' E 010°18'0 0.0
2017-Aug-12 15:44N 43°33' E 010°18'0 0.0
2017-Aug-12 15:26N 43°33' E 010°18'0 0.0
2017-Aug-12 14:59N 43°33' E 010°18'0 0.0
2017-Aug-12 14:26N 43°33' E 010°18'0 0.0
2017-Aug-12 13:50N 43°33' E 010°18'0 0.0
2017-Aug-12 13:29N 43°33' E 010°18'0 0.0
2017-Aug-12 12:59N 43°33' E 010°18'0 0.0
2017-Aug-12 12:29N 43°33' E 010°18'0 0.0
2017-Aug-12 11:56N 43°33' E 010°18'0 0.0
2017-Aug-12 11:29N 43°33' E 010°18'0 0.0
2017-Aug-12 10:53N 43°33' E 010°18'0 0.0
2017-Aug-12 10:26N 43°33' E 010°18'0 0.0
2017-Aug-12 09:59N 43°33' E 010°18'0 0.0
2017-Aug-12 09:20N 43°33' E 010°18'0 0.0
2017-Aug-12 08:59N 43°33' E 010°18'0 0.0
2017-Aug-12 08:29N 43°33' E 010°18'0 0.0
2017-Aug-12 07:59N 43°33' E 010°18'0 0.0
2017-Aug-12 07:29N 43°33' E 010°18'0 0.0
2017-Aug-12 06:56N 43°33' E 010°18'0 0.0
2017-Aug-12 06:29N 43°33' E 010°18'0 0.0
2017-Aug-12 05:59N 43°33' E 010°18'0 0.0
2017-Aug-12 05:29N 43°33' E 010°18'0 0.0
2017-Aug-12 04:59N 43°33' E 010°18'0 0.0
2017-Aug-12 04:29N 43°33' E 010°18'0 0.0
2017-Aug-12 03:59N 43°33' E 010°18'0 0.0
2017-Aug-12 03:29N 43°33' E 010°18'0 0.0
2017-Aug-12 02:59N 43°33' E 010°18'0 0.0
2017-Aug-12 02:29N 43°33' E 010°18'0 0.0
2017-Aug-12 01:53N 43°33' E 010°18'0 0.0
2017-Aug-12 01:29N 43°33' E 010°18'0 0.0
2017-Aug-12 00:53N 43°33' E 010°18'0 0.0
2017-Aug-12 00:29N 43°33' E 010°18'0 0.0
2017-Aug-11 23:56N 43°33' E 010°18'0 0.0
2017-Aug-11 23:29N 43°33' E 010°18'0 0.0
2017-Aug-11 22:59N 43°33' E 010°18'0 0.0
2017-Aug-11 22:26N 43°33' E 010°18'0 0.0
2017-Aug-11 21:56N 43°33' E 010°18'0 0.0
2017-Aug-11 21:26N 43°33' E 010°18'0 0.0
2017-Aug-11 20:59N 43°33' E 010°18'0 0.0
2017-Aug-11 20:29N 43°33' E 010°18'0 0.0
2017-Aug-11 19:56N 43°33' E 010°18'0 0.0
2017-Aug-11 19:26N 43°33' E 010°18'0 0.0
2017-Aug-11 18:47N 43°33' E 010°18'0 0.0
2017-Aug-11 18:29N 43°33' E 010°18'0 0.0
2017-Aug-11 17:59N 43°33' E 010°18'0 0.0
2017-Aug-11 17:29N 43°33' E 010°18'0 0.0
2017-Aug-11 16:59N 43°33' E 010°18'0 0.0
2017-Aug-11 16:29N 43°33' E 010°18'0 0.0
2017-Aug-11 15:59N 43°33' E 010°18'0 0.0
2017-Aug-11 15:26N 43°33' E 010°18'0 0.0
2017-Aug-11 14:59N 43°33' E 010°18'0 0.0
2017-Aug-11 14:29N 43°33' E 010°18'0 0.0
2017-Aug-11 13:30N 43°33' E 010°18'0 0.0
2017-Aug-11 13:00N 43°33' E 010°18'0 0.0
2017-Aug-11 12:30N 43°33' E 010°18'0 0.0
2017-Aug-11 12:00N 43°33' E 010°18'0 0.0
2017-Aug-11 11:30N 43°33' E 010°18'0 0.0
2017-Aug-11 11:00N 43°33' E 010°18'0 0.0
2017-Aug-11 10:30N 43°33' E 010°18'0 0.0
2017-Aug-11 10:00N 43°33' E 010°18'0 0.0
2017-Aug-11 09:30N 43°33' E 010°18'0 0.0
2017-Aug-11 09:00N 43°33' E 010°18'0 0.0
2017-Aug-11 08:30N 43°33' E 010°18'0 0.0
2017-Aug-11 08:00N 43°33' E 010°18'0 0.0
2017-Aug-11 07:30N 43°33' E 010°18'0 0.0
2017-Aug-11 07:00N 43°33' E 010°18'0 0.0
2017-Aug-11 06:30N 43°33' E 010°18'0 0.0
2017-Aug-11 06:00N 43°33' E 010°18'0 0.0
2017-Aug-11 05:30N 43°33' E 010°18'0 0.0
2017-Aug-11 05:00N 43°33' E 010°18'0 0.0
2017-Aug-11 04:30N 43°33' E 010°18'0 0.0
2017-Aug-11 04:00N 43°33' E 010°18'0 0.0
2017-Aug-11 03:30N 43°33' E 010°18'0 0.0
2017-Aug-11 03:00N 43°33' E 010°18'0 0.0
2017-Aug-11 02:30N 43°33' E 010°18'0 0.0
2017-Aug-11 02:00N 43°33' E 010°18'0 0.0
2017-Aug-11 01:30N 43°33' E 010°18'0 0.0
2017-Aug-11 01:00N 43°33' E 010°18'0 0.0
2017-Aug-11 00:30N 43°33' E 010°18'0 0.0
2017-Aug-11 00:00N 43°33' E 010°18'0 0.0
2017-Aug-10 23:30N 43°33' E 010°18'0 0.0
2017-Aug-10 23:00N 43°33' E 010°18'0 0.0
2017-Aug-10 22:30N 43°33' E 010°18'0 0.0
2017-Aug-10 21:59N 43°33' E 010°18'0 0.0
2017-Aug-10 21:30N 43°33' E 010°18'0 0.0
2017-Aug-10 21:00N 43°33' E 010°18'0 0.0
2017-Aug-10 20:30N 43°33' E 010°18'0 0.0
2017-Aug-10 20:00N 43°33' E 010°18'0 0.0
2017-Aug-10 19:30N 43°33' E 010°18'0 0.0
2017-Aug-10 19:00N 43°33' E 010°18'0 0.0
2017-Aug-10 18:30N 43°33' E 010°18'0 0.0
2017-Aug-10 18:00N 43°33' E 010°18'0 0.0
2017-Aug-10 17:30N 43°33' E 010°18'0 0.0
2017-Aug-10 17:00N 43°33' E 010°18'0 0.0
2017-Aug-10 16:30N 43°33' E 010°18'0 0.0
2017-Aug-10 16:00N 43°33' E 010°18'0 0.0
2017-Aug-10 15:30N 43°33' E 010°18'0 0.0
2017-Aug-10 15:00N 43°33' E 010°18'0 0.0
2017-Aug-10 14:30N 43°33' E 010°18'0 0.0
2017-Aug-10 14:00N 43°33' E 010°18'0 0.0
2017-Aug-10 13:30N 43°33' E 010°18'0 0.0
2017-Aug-10 13:00N 43°33' E 010°18'2 3.9
2017-Aug-10 12:30N 43°32' E 010°16'5 9.2
2017-Aug-10 12:00N 43°27' E 010°15'510.1
2017-Aug-10 11:29N 43°22' E 010°16'510.0
2017-Aug-10 11:00N 43°17' E 010°16'510.1
2017-Aug-10 10:29N 43°12' E 010°17'510.1
2017-Aug-10 09:58N 43°07' E 010°18'18 2.5
2017-Aug-10 02:46N 42°49' E 010°21'9 9.1
2017-Aug-10 01:47N 42°57' E 010°18'310.5
2017-Aug-10 01:30N 43°00' E 010°17'510.5
2017-Aug-10 01:00N 43°05' E 010°15'510.4
2017-Aug-10 00:30N 43°10' E 010°13'510.6
2017-Aug-10 00:00N 43°15' E 010°11'510.8
2017-Aug-09 23:30N 43°21' E 010°09'510.7
2017-Aug-09 23:00N 43°26' E 010°08'510.5
2017-Aug-09 22:30N 43°31' E 010°06'510.4
2017-Aug-09 22:00N 43°36' E 010°04'510.2
2017-Aug-09 21:30N 43°41' E 010°02'510.5
2017-Aug-09 21:00N 43°46' E 010°01'510.4
2017-Aug-09 20:30N 43°51' E 009°59'510.4
2017-Aug-09 20:00N 43°56' E 009°56'510.4
2017-Aug-09 19:30N 44°00' E 009°53'3 6.2
2017-Aug-09 19:00N 44°03' E 009°51'0 0.0
2017-Aug-09 18:27N 44°03' E 009°51'0 0.0
2017-Aug-09 18:00N 44°03' E 009°51'0 0.0
2017-Aug-09 17:30N 44°03' E 009°51'0 0.0
2017-Aug-09 17:00N 44°03' E 009°51'0 0.0
2017-Aug-09 16:30N 44°03' E 009°51'0 0.0
2017-Aug-09 16:00N 44°03' E 009°51'0 0.0
2017-Aug-09 15:30N 44°03' E 009°51'0 0.0
2017-Aug-09 15:00N 44°03' E 009°51'0 0.0
2017-Aug-09 14:30N 44°03' E 009°51'0 0.0
2017-Aug-09 14:00N 44°03' E 009°51'0 0.0
2017-Aug-09 13:30N 44°03' E 009°51'0 0.0
2017-Aug-09 13:00N 44°03' E 009°51'0 0.0
2017-Aug-09 12:30N 44°03' E 009°51'0 0.0
2017-Aug-09 11:59N 44°03' E 009°51'0 0.0
2017-Aug-09 11:30N 44°03' E 009°51'0 0.0
2017-Aug-09 11:00N 44°03' E 009°51'0 0.0
2017-Aug-09 10:28N 44°03' E 009°51'0 0.0
2017-Aug-09 10:00N 44°03' E 009°51'0 0.0
2017-Aug-09 09:30N 44°03' E 009°51'0 0.0
2017-Aug-09 09:00N 44°03' E 009°51'0 0.0
2017-Aug-09 08:30N 44°03' E 009°51'0 0.0
2017-Aug-09 08:00N 44°03' E 009°51'0 0.0
2017-Aug-09 07:30N 44°03' E 009°51'0 0.0
2017-Aug-09 07:00N 44°03' E 009°51'0 0.0
2017-Aug-09 06:30N 44°03' E 009°51'0 0.0
2017-Aug-09 06:00N 44°03' E 009°51'0 0.0
2017-Aug-09 05:30N 44°03' E 009°51'0 0.0
2017-Aug-09 05:00N 44°03' E 009°51'0 0.0
2017-Aug-09 04:30N 44°03' E 009°51'0 0.0
2017-Aug-09 04:00N 44°03' E 009°51'0 0.0
2017-Aug-09 03:30N 44°03' E 009°51'0 0.0
2017-Aug-09 03:00N 44°03' E 009°51'0 0.0
2017-Aug-09 02:30N 44°03' E 009°51'0 0.0
2017-Aug-09 02:00N 44°03' E 009°51'0 0.0
2017-Aug-09 01:30N 44°03' E 009°51'0 0.0
2017-Aug-09 01:00N 44°03' E 009°51'0 0.0
2017-Aug-09 00:30N 44°03' E 009°51'0 0.0
2017-Aug-09 00:00N 44°03' E 009°51'0 0.0
2017-Aug-08 23:26N 44°03' E 009°51'0 0.0
2017-Aug-08 23:00N 44°03' E 009°51'0 0.0
2017-Aug-08 22:30N 44°03' E 009°51'0 0.0
2017-Aug-08 22:00N 44°03' E 009°51'0 0.0
2017-Aug-08 21:30N 44°03' E 009°51'0 0.9
2017-Aug-08 21:00N 44°03' E 009°51'4 8.5
2017-Aug-08 20:30N 44°01' E 009°56'4 8.7
2017-Aug-08 20:00N 43°59' E 009°51'5 9.9
2017-Aug-08 19:30N 44°00' E 009°44'510.7
2017-Aug-08 19:00N 44°04' E 009°38'510.8
2017-Aug-08 18:30N 44°07' E 009°33'510.7
2017-Aug-08 18:00N 44°11' E 009°27'510.6
2017-Aug-08 17:30N 44°15' E 009°22'  
Track history (hours):
 
Tides and Currents Weather Stations Pressure Air Temp Water Temp Dewpoint Dewpoint Depression Visibility Wind Speed Wind Dir Waves Ship Positions

Arethusa

Last reported at 2017-Aug-18 05:28 UTC. Time now 2017-Aug-19 05:25 UTC.
Position N 43°41' E 007°17'.

Length 60 m; draft 3 m.

Type: Passenger vessel. MMSI: 249069000.

Date/timePositionNaut miles runAvg speedWind from/ knotsBaromVisibWave heightAir tempDewpointWater temp
2017-Aug-18 05:28N 43°41' E 007°17'34 6.1
2017-Aug-17 23:58N 43°49' E 008°03'610.8
2017-Aug-17 23:25N 43°52' E 008°10'411.0
2017-Aug-17 23:00N 43°54' E 008°16'611.1
2017-Aug-17 22:30N 43°56' E 008°23'611.1
2017-Aug-17 22:00N 43°59' E 008°29'510.9
2017-Aug-17 21:30N 44°01' E 008°36'610.9
2017-Aug-17 20:58N 44°04' E 008°43'511.0
2017-Aug-17 20:30N 44°06' E 008°50'511.0
2017-Aug-17 20:00N 44°09' E 008°56'510.8
2017-Aug-17 19:30N 44°11' E 009°03'510.6
2017-Aug-17 19:00N 44°14' E 009°10'510.0
2017-Aug-17 18:30N 44°16' E 009°16'2 0.1
2017-Aug-17 04:54N 44°16' E 009°18'4 9.9
2017-Aug-17 04:30N 44°14' E 009°23'510.1
2017-Aug-17 04:00N 44°10' E 009°28'510.2
2017-Aug-17 03:31N 44°07' E 009°33'5 9.9
2017-Aug-17 03:01N 44°04' E 009°38'5 9.7
2017-Aug-17 02:30N 44°01' E 009°44'5 9.7
2017-Aug-17 02:01N 44°01' E 009°50'3 3.8
2017-Aug-17 01:19N 44°03' E 009°51'0 0.0
2017-Aug-17 00:58N 44°03' E 009°51'0 0.0
2017-Aug-17 00:28N 44°03' E 009°51'0 0.0
2017-Aug-16 23:58N 44°03' E 009°51'0 0.0
2017-Aug-16 23:28N 44°03' E 009°51'0 0.0
2017-Aug-16 22:58N 44°03' E 009°51'0 0.0
2017-Aug-16 22:28N 44°03' E 009°51'0 0.0
2017-Aug-16 21:58N 44°03' E 009°51'0 0.0
2017-Aug-16 21:28N 44°03' E 009°51'0 0.0
2017-Aug-16 20:58N 44°03' E 009°51'0 0.0
2017-Aug-16 20:28N 44°03' E 009°51'0 0.0
2017-Aug-16 19:58N 44°03' E 009°51'0 0.0
2017-Aug-16 19:22N 44°03' E 009°51'0 0.0
2017-Aug-16 18:58N 44°03' E 009°51'0 0.0
2017-Aug-16 18:28N 44°03' E 009°51'0 0.0
2017-Aug-16 17:58N 44°03' E 009°51'0 0.0
2017-Aug-16 17:28N 44°03' E 009°51'0 0.0
2017-Aug-16 16:58N 44°03' E 009°51'0 0.0
2017-Aug-16 16:28N 44°03' E 009°51'0 0.0
2017-Aug-16 15:58N 44°03' E 009°51'0 0.1
2017-Aug-16 15:28N 44°03' E 009°51'0 0.1
2017-Aug-16 14:58N 44°03' E 009°51'0 0.1
2017-Aug-16 14:28N 44°03' E 009°51'0 0.0
2017-Aug-16 13:58N 44°03' E 009°51'0 0.0
2017-Aug-16 13:28N 44°03' E 009°51'0 0.0
2017-Aug-16 12:55N 44°03' E 009°51'0 0.0
2017-Aug-16 12:28N 44°03' E 009°51'0 0.1
2017-Aug-16 11:58N 44°03' E 009°51'0 0.0
2017-Aug-16 11:22N 44°03' E 009°51'0 0.1
2017-Aug-16 10:58N 44°03' E 009°51'0 0.0
2017-Aug-16 10:28N 44°03' E 009°51'0 0.0
2017-Aug-16 09:58N 44°03' E 009°51'0 0.0
2017-Aug-16 09:28N 44°03' E 009°51'0 0.0
2017-Aug-16 08:58N 44°03' E 009°51'0 0.0
2017-Aug-16 08:28N 44°03' E 009°51'0 0.1
2017-Aug-16 07:58N 44°03' E 009°51'0 0.0
2017-Aug-16 07:28N 44°03' E 009°51'0 0.0
2017-Aug-16 06:58N 44°03' E 009°51'0 0.0
2017-Aug-16 06:28N 44°03' E 009°51'0 0.0
2017-Aug-16 05:58N 44°03' E 009°51'0 0.0
2017-Aug-16 05:28N 44°03' E 009°51'0 0.0
2017-Aug-16 04:58N 44°03' E 009°51'0 0.0
2017-Aug-16 04:28N 44°03' E 009°51'0 0.0
2017-Aug-16 03:58N 44°03' E 009°51'0 0.0
2017-Aug-16 03:28N 44°03' E 009°51'0 0.0
2017-Aug-16 02:58N 44°03' E 009°51'0 0.0
2017-Aug-16 02:28N 44°03' E 009°51'0 0.0
2017-Aug-16 01:58N 44°03' E 009°51'0 0.0
2017-Aug-16 01:28N 44°03' E 009°51'0 0.0
2017-Aug-16 00:58N 44°03' E 009°51'0 0.0
2017-Aug-16 00:28N 44°03' E 009°51'0 0.0
2017-Aug-15 23:58N 44°03' E 009°51'0 0.0
2017-Aug-15 23:28N 44°03' E 009°51'0 0.0
2017-Aug-15 22:58N 44°03' E 009°51'0 0.0
2017-Aug-15 22:25N 44°03' E 009°51'0 0.0
2017-Aug-15 21:55N 44°03' E 009°51'0 0.0
2017-Aug-15 21:28N 44°03' E 009°51'0 0.0
2017-Aug-15 20:55N 44°03' E 009°51'0 0.0
2017-Aug-15 20:28N 44°03' E 009°51'0 0.0
2017-Aug-15 19:58N 44°03' E 009°51'0 0.0
2017-Aug-15 19:28N 44°03' E 009°51'0 0.0
2017-Aug-15 18:58N 44°03' E 009°51'0 0.0
2017-Aug-15 18:28N 44°03' E 009°51'0 0.0
2017-Aug-15 17:55N 44°03' E 009°51'0 0.0
2017-Aug-15 17:28N 44°03' E 009°51'0 0.0
2017-Aug-15 16:58N 44°03' E 009°51'0 0.0
2017-Aug-15 16:28N 44°03' E 009°51'0 0.0
2017-Aug-15 15:58N 44°03' E 009°51'0 0.1
2017-Aug-15 15:28N 44°03' E 009°51'0 0.0
2017-Aug-15 14:58N 44°03' E 009°51'0 0.0
2017-Aug-15 14:19N 44°03' E 009°51'0 0.0
2017-Aug-15 13:58N 44°03' E 009°51'0 0.0
2017-Aug-15 13:25N 44°03' E 009°51'0 0.0
2017-Aug-15 12:58N 44°03' E 009°51'0 0.6
2017-Aug-15 12:29N 44°03' E 009°51'3 5.8
2017-Aug-15 12:00N 44°02' E 009°54'510.1
2017-Aug-15 11:30N 43°60' E 010°01'3 1.0
2017-Aug-15 08:44N 44°02' E 010°02'0 0.0
2017-Aug-15 08:17N 44°02' E 010°02'0 0.0
2017-Aug-15 07:44N 44°02' E 010°02'0 0.0
2017-Aug-15 07:23N 44°02' E 010°02'0 0.0
2017-Aug-15 06:56N 44°02' E 010°02'0 0.0
2017-Aug-15 06:26N 44°02' E 010°02'0 0.0
2017-Aug-15 05:59N 44°02' E 010°02'1 2.3
2017-Aug-15 05:30N 44°01' E 010°03'510.0
2017-Aug-15 05:00N 43°56' E 010°01'510.4
2017-Aug-15 04:30N 43°52' E 009°58'611.0
2017-Aug-15 04:00N 43°46' E 009°55'510.9
2017-Aug-15 03:30N 43°41' E 009°53'510.9
2017-Aug-15 03:00N 43°36' E 009°50'510.8
2017-Aug-15 02:30N 43°31' E 009°48'510.6
2017-Aug-15 02:00N 43°26' E 009°45'510.2
2017-Aug-15 01:30N 43°21' E 009°44'510.0
2017-Aug-15 01:00N 43°16' E 009°43'510.3
2017-Aug-15 00:30N 43°11' E 009°41'510.3
2017-Aug-15 00:00N 43°06' E 009°40'510.9
2017-Aug-14 23:30N 43°01' E 009°39'510.8
2017-Aug-14 23:00N 42°55' E 009°41'10 8.7
2017-Aug-14 21:49N 42°45' E 009°37'310.1
2017-Aug-14 21:28N 42°43' E 009°33'29 1.1
2017-Aug-13 18:57N 42°51' E 010°11'510.4
2017-Aug-13 18:30N 42°51' E 010°17'3 0.2
2017-Aug-13 05:36N 42°49' E 010°20'0 3.5
2017-Aug-13 05:28N 42°48' E 010°20'0 0.2
2017-Aug-13 04:58N 42°48' E 010°20'0 0.0
2017-Aug-13 04:25N 42°48' E 010°20'0 0.0
2017-Aug-13 03:55N 42°48' E 010°20'0 0.0
2017-Aug-13 03:16N 42°48' E 010°20'0 0.0
2017-Aug-13 02:52N 42°48' E 010°20'0 0.0
2017-Aug-13 02:28N 42°48' E 010°20'0 0.0
2017-Aug-13 01:52N 42°48' E 010°20'0 0.0
2017-Aug-13 01:28N 42°48' E 010°20'0 0.0
2017-Aug-13 00:40N 42°48' E 010°20'0 0.0
2017-Aug-13 00:22N 42°48' E 010°20'0 0.1
2017-Aug-12 23:52N 42°48' E 010°20'8 9.2
2017-Aug-12 23:02N 42°56' E 010°19'311.0
2017-Aug-12 22:48N 42°59' E 010°19'311.0
2017-Aug-12 22:30N 43°02' E 010°18'611.2
2017-Aug-12 22:00N 43°07' E 010°17'611.2
2017-Aug-12 21:30N 43°13' E 010°16'611.2
2017-Aug-12 21:00N 43°19' E 010°15'611.0
2017-Aug-12 20:30N 43°24' E 010°14'510.8
2017-Aug-12 20:00N 43°29' E 010°13'4 8.8
2017-Aug-12 19:31N 43°32' E 010°17'1 1.5
2017-Aug-12 19:00N 43°33' E 010°18'0 0.0
2017-Aug-12 18:29N 43°33' E 010°18'0 0.0
2017-Aug-12 17:59N 43°33' E 010°18'0 0.0
2017-Aug-12 17:29N 43°33' E 010°18'0 0.0
2017-Aug-12 16:56N 43°33' E 010°18'0 0.0
2017-Aug-12 16:17N 43°33' E 010°18'0 0.0
2017-Aug-12 15:44N 43°33' E 010°18'0 0.0
2017-Aug-12 15:26N 43°33' E 010°18'0 0.0
2017-Aug-12 14:59N 43°33' E 010°18'0 0.0
2017-Aug-12 14:26N 43°33' E 010°18'0 0.0
2017-Aug-12 13:50N 43°33' E 010°18'0 0.0
2017-Aug-12 13:29N 43°33' E 010°18'0 0.0
2017-Aug-12 12:59N 43°33' E 010°18'0 0.0
2017-Aug-12 12:29N 43°33' E 010°18'0 0.0
2017-Aug-12 11:56N 43°33' E 010°18'0 0.0
2017-Aug-12 11:29N 43°33' E 010°18'0 0.0
2017-Aug-12 10:53N 43°33' E 010°18'0 0.0
2017-Aug-12 10:26N 43°33' E 010°18'0 0.0
2017-Aug-12 09:59N 43°33' E 010°18'0 0.0
2017-Aug-12 09:20N 43°33' E 010°18'0 0.0
2017-Aug-12 08:59N 43°33' E 010°18'0 0.0
2017-Aug-12 08:29N 43°33' E 010°18'0 0.0
2017-Aug-12 07:59N 43°33' E 010°18'0 0.0
2017-Aug-12 07:29N 43°33' E 010°18'0 0.0
2017-Aug-12 06:56N 43°33' E 010°18'0 0.0
2017-Aug-12 06:29N 43°33' E 010°18'0 0.0
2017-Aug-12 05:59N 43°33' E 010°18'0 0.0
2017-Aug-12 05:29N 43°33' E 010°18'0 0.0
2017-Aug-12 04:59N 43°33' E 010°18'0 0.0
2017-Aug-12 04:29N 43°33' E 010°18'0 0.0
2017-Aug-12 03:59N 43°33' E 010°18'0 0.0
2017-Aug-12 03:29N 43°33' E 010°18'0 0.0
2017-Aug-12 02:59N 43°33' E 010°18'0 0.0
2017-Aug-12 02:29N 43°33' E 010°18'0 0.0
2017-Aug-12 01:53N 43°33' E 010°18'0 0.0
2017-Aug-12 01:29N 43°33' E 010°18'0 0.0
2017-Aug-12 00:53N 43°33' E 010°18'0 0.0
2017-Aug-12 00:29N 43°33' E 010°18'0 0.0
2017-Aug-11 23:56N 43°33' E 010°18'0 0.0
2017-Aug-11 23:29N 43°33' E 010°18'0 0.0
2017-Aug-11 22:59N 43°33' E 010°18'0 0.0
2017-Aug-11 22:26N 43°33' E 010°18'0 0.0
2017-Aug-11 21:56N 43°33' E 010°18'0 0.0
2017-Aug-11 21:26N 43°33' E 010°18'0 0.0
2017-Aug-11 20:59N 43°33' E 010°18'0 0.0
2017-Aug-11 20:29N 43°33' E 010°18'0 0.0
2017-Aug-11 19:56N 43°33' E 010°18'0 0.0
2017-Aug-11 19:26N 43°33' E 010°18'0 0.0
2017-Aug-11 18:47N 43°33' E 010°18'0 0.0
2017-Aug-11 18:29N 43°33' E 010°18'0 0.0
2017-Aug-11 17:59N 43°33' E 010°18'0 0.0
2017-Aug-11 17:29N 43°33' E 010°18'0 0.0
2017-Aug-11 16:59N 43°33' E 010°18'0 0.0
2017-Aug-11 16:29N 43°33' E 010°18'0 0.0
2017-Aug-11 15:59N 43°33' E 010°18'0 0.0
2017-Aug-11 15:26N 43°33' E 010°18'0 0.0
2017-Aug-11 14:59N 43°33' E 010°18'0 0.0
2017-Aug-11 14:29N 43°33' E 010°18'0 0.0
2017-Aug-11 13:30N 43°33' E 010°18'0 0.0
2017-Aug-11 13:00N 43°33' E 010°18'0 0.0
2017-Aug-11 12:30N 43°33' E 010°18'0 0.0
2017-Aug-11 12:00N 43°33' E 010°18'0 0.0
2017-Aug-11 11:30N 43°33' E 010°18'0 0.0
2017-Aug-11 11:00N 43°33' E 010°18'0 0.0
2017-Aug-11 10:30N 43°33' E 010°18'0 0.0
2017-Aug-11 10:00N 43°33' E 010°18'0 0.0
2017-Aug-11 09:30N 43°33' E 010°18'0 0.0
2017-Aug-11 09:00N 43°33' E 010°18'0 0.0
2017-Aug-11 08:30N 43°33' E 010°18'0 0.0
2017-Aug-11 08:00N 43°33' E 010°18'0 0.0
2017-Aug-11 07:30N 43°33' E 010°18'0 0.0
2017-Aug-11 07:00N 43°33' E 010°18'0 0.0
2017-Aug-11 06:30N 43°33' E 010°18'0 0.0
2017-Aug-11 06:00N 43°33' E 010°18'0 0.0
2017-Aug-11 05:30N 43°33' E 010°18'0 0.0
2017-Aug-11 05:00N 43°33' E 010°18'0 0.0
2017-Aug-11 04:30N 43°33' E 010°18'0 0.0
2017-Aug-11 04:00N 43°33' E 010°18'0 0.0
2017-Aug-11 03:30N 43°33' E 010°18'0 0.0
2017-Aug-11 03:00N 43°33' E 010°18'0 0.0
2017-Aug-11 02:30N 43°33' E 010°18'0 0.0
2017-Aug-11 02:00N 43°33' E 010°18'0 0.0
2017-Aug-11 01:30N 43°33' E 010°18'0 0.0
2017-Aug-11 01:00N 43°33' E 010°18'0 0.0
2017-Aug-11 00:30N 43°33' E 010°18'0 0.0
2017-Aug-11 00:00N 43°33' E 010°18'0 0.0
2017-Aug-10 23:30N 43°33' E 010°18'0 0.0
2017-Aug-10 23:00N 43°33' E 010°18'0 0.0
2017-Aug-10 22:30N 43°33' E 010°18'0 0.0
2017-Aug-10 21:59N 43°33' E 010°18'0 0.0
2017-Aug-10 21:30N 43°33' E 010°18'0 0.0
2017-Aug-10 21:00N 43°33' E 010°18'0 0.0
2017-Aug-10 20:30N 43°33' E 010°18'0 0.0
2017-Aug-10 20:00N 43°33' E 010°18'0 0.0
2017-Aug-10 19:30N 43°33' E 010°18'0 0.0
2017-Aug-10 19:00N 43°33' E 010°18'0 0.0
2017-Aug-10 18:30N 43°33' E 010°18'0 0.0
2017-Aug-10 18:00N 43°33' E 010°18'0 0.0
2017-Aug-10 17:30N 43°33' E 010°18'0 0.0
2017-Aug-10 17:00N 43°33' E 010°18'0 0.0
2017-Aug-10 16:30N 43°33' E 010°18'0 0.0
2017-Aug-10 16:00N 43°33' E 010°18'0 0.0
2017-Aug-10 15:30N 43°33' E 010°18'0 0.0
2017-Aug-10 15:00N 43°33' E 010°18'0 0.0
2017-Aug-10 14:30N 43°33' E 010°18'0 0.0
2017-Aug-10 14:00N 43°33' E 010°18'0 0.0
2017-Aug-10 13:30N 43°33' E 010°18'0 0.0
2017-Aug-10 13:00N 43°33' E 010°18'2 3.9
2017-Aug-10 12:30N 43°32' E 010°16'5 9.2
2017-Aug-10 12:00N 43°27' E 010°15'510.1
2017-Aug-10 11:29N 43°22' E 010°16'510.0
2017-Aug-10 11:00N 43°17' E 010°16'510.1
2017-Aug-10 10:29N 43°12' E 010°17'510.1
2017-Aug-10 09:58N 43°07' E 010°18'18 2.5
2017-Aug-10 02:46N 42°49' E 010°21'9 9.1
2017-Aug-10 01:47N 42°57' E 010°18'310.5
2017-Aug-10 01:30N 43°00' E 010°17'510.5
2017-Aug-10 01:00N 43°05' E 010°15'510.4
2017-Aug-10 00:30N 43°10' E 010°13'510.6
2017-Aug-10 00:00N 43°15' E 010°11'510.8
2017-Aug-09 23:30N 43°21' E 010°09'510.7
2017-Aug-09 23:00N 43°26' E 010°08'510.5
2017-Aug-09 22:30N 43°31' E 010°06'510.4
2017-Aug-09 22:00N 43°36' E 010°04'510.2
2017-Aug-09 21:30N 43°41' E 010°02'510.5
2017-Aug-09 21:00N 43°46' E 010°01'510.4
2017-Aug-09 20:30N 43°51' E 009°59'510.4
2017-Aug-09 20:00N 43°56' E 009°56'510.4
2017-Aug-09 19:30N 44°00' E 009°53'3 6.2
2017-Aug-09 19:00N 44°03' E 009°51'0 0.0
2017-Aug-09 18:27N 44°03' E 009°51'0 0.0
2017-Aug-09 18:00N 44°03' E 009°51'0 0.0
2017-Aug-09 17:30N 44°03' E 009°51'0 0.0
2017-Aug-09 17:00N 44°03' E 009°51'0 0.0
2017-Aug-09 16:30N 44°03' E 009°51'0 0.0
2017-Aug-09 16:00N 44°03' E 009°51'0 0.0
2017-Aug-09 15:30N 44°03' E 009°51'0 0.0
2017-Aug-09 15:00N 44°03' E 009°51'0 0.0
2017-Aug-09 14:30N 44°03' E 009°51'0 0.0
2017-Aug-09 14:00N 44°03' E 009°51'0 0.0
2017-Aug-09 13:30N 44°03' E 009°51'0 0.0
2017-Aug-09 13:00N 44°03' E 009°51'0 0.0
2017-Aug-09 12:30N 44°03' E 009°51'0 0.0
2017-Aug-09 11:59N 44°03' E 009°51'0 0.0
2017-Aug-09 11:30N 44°03' E 009°51'0 0.0
2017-Aug-09 11:00N 44°03' E 009°51'0 0.0
2017-Aug-09 10:28N 44°03' E 009°51'0 0.0
2017-Aug-09 10:00N 44°03' E 009°51'0 0.0
2017-Aug-09 09:30N 44°03' E 009°51'0 0.0
2017-Aug-09 09:00N 44°03' E 009°51'0 0.0
2017-Aug-09 08:30N 44°03' E 009°51'0 0.0
2017-Aug-09 08:00N 44°03' E 009°51'0 0.0
2017-Aug-09 07:30N 44°03' E 009°51'0 0.0
2017-Aug-09 07:00N 44°03' E 009°51'0 0.0
2017-Aug-09 06:30N 44°03' E 009°51'0 0.0
2017-Aug-09 06:00N 44°03' E 009°51'0 0.0
2017-Aug-09 05:30N 44°03' E 009°51'0 0.0
2017-Aug-09 05:00N 44°03' E 009°51'0 0.0
2017-Aug-09 04:30N 44°03' E 009°51'0 0.0
2017-Aug-09 04:00N 44°03' E 009°51'0 0.0
2017-Aug-09 03:30N 44°03' E 009°51'0 0.0
2017-Aug-09 03:00N 44°03' E 009°51'0 0.0
2017-Aug-09 02:30N 44°03' E 009°51'0 0.0
2017-Aug-09 02:00N 44°03' E 009°51'0 0.0
2017-Aug-09 01:30N 44°03' E 009°51'0 0.0
2017-Aug-09 01:00N 44°03' E 009°51'0 0.0
2017-Aug-09 00:30N 44°03' E 009°51'0 0.0
2017-Aug-09 00:00N 44°03' E 009°51'0 0.0
2017-Aug-08 23:26N 44°03' E 009°51'0 0.0
2017-Aug-08 23:00N 44°03' E 009°51'0 0.0
2017-Aug-08 22:30N 44°03' E 009°51'0 0.0
2017-Aug-08 22:00N 44°03' E 009°51'0 0.0
2017-Aug-08 21:30N 44°03' E 009°51'0 0.9
2017-Aug-08 21:00N 44°03' E 009°51'4 8.5
2017-Aug-08 20:30N 44°01' E 009°56'4 8.7
2017-Aug-08 20:00N 43°59' E 009°51'5 9.9
2017-Aug-08 19:30N 44°00' E 009°44'510.7
2017-Aug-08 19:00N 44°04' E 009°38'510.8
2017-Aug-08 18:30N 44°07' E 009°33'510.7
2017-Aug-08 18:00N 44°11' E 009°27'510.6
2017-Aug-08 17:30N 44°15' E 009°22'  

Dump ship's entire track history